Meteo Giornale » Osservazioni meteo Austria » Vienna-Schwechat

ore: 15:50 - Osservazioni Meteo Vienna-Schwechat
Lat. 48° 7' N Lon. 16° 34' E Alt. 183 metri s.l.m.

sereno Europe/Vienna

10 °C

Sereno

Temp. 24 Ore

-3 °C

12 °C

Sud-Est

16.7 Km/h

Dew point 2 °C

Umidità 57 %

Visibilità  10 Km

Il sole sorge alle ore 06:53

Il sole tramonta alle ore 17:22

Data e Ora Cielo e Fenomeni T °C DP °C Um. % Pres. hPa Vis. km Vento km/h
Oggi h: 15:50 sereno Sereno 10 2 57 1021 10 SE 16.7
Oggi h: 15:20 sereno Sereno 11 2 53 1021 10 SE 16.7
Oggi h: 14:50 sereno Sereno 11 2 53 1021 10 SE 16.7
Oggi h: 14:20 sereno Sereno 12 2 50 1022 10 E/SE 11.1
Oggi h: 13:50 sereno Sereno 11 3 57 1022 10 E 11.1
Oggi h: 13:20 sereno Sereno 10 3 61 1022 10 E/SE 11.1
Oggi h: 12:50 sereno Sereno 9 3 66 1023 10 E/SE 13
Oggi h: 12:20 sereno Sereno 8 2 65 1023 10 SE 13
Oggi h: 11:50 sereno Sereno 7 2 70 1024 10 N 5.5
Oggi h: 11:20 sereno Sereno 6 2 75 1024 10 N 5.5
Oggi h: 10:50 sereno Sereno 5 1 75 1025 10 N 5.5
Oggi h: 10:20 molto_nuvoloso Molto Nuvoloso 4 1 80 1025 9 N 3.7
Oggi h: 09:50 molto_nuvoloso Molto Nuvoloso 4 2 86 1025 7 N 1.8
Oggi h: 09:20 foschia Foschia 2 1 93 1025 4 N 3.7
Oggi h: 08:50 nebbia Banco di Nebbia -0 -0 100 1025 0.1 N 3.7
Oggi h: 08:20 molto_nuvoloso Gelata -2 -2 100 1025 1 N 5.5
Oggi h: 07:50 nuvoloso Gelata -3 -3 100 1025 0.15 N 5.5
Oggi h: 07:20 nebbia NebbiaParziale -3 -4 92 1025 0.2 N 3.7
Oggi h: 06:50 nebbia Nebbia Congelantesi -3 -3 100 1024 0.3 N 1.8
Oggi h: 06:20 nuvoloso Gelata -2 -2 100 1025 0.15 N 3.7
Oggi h: 05:50 nuvoloso Gelata -2 -3 92 1024 0.5 N 3.7
Oggi h: 05:20 nuvoloso Gelata -3 -4 92 1024 0.5 N 1.8
Oggi h: 04:50 nuvoloso Gelata -3 -4 92 1024 1 N 3.7
Oggi h: 04:20 nuvoloso Gelata -3 -4 92 1024 1 N 3.7
Oggi h: 03:50 nuvoloso Nuvoloso -2 -4 86 1024 6 S 7.4
Oggi h: 03:20 nuvoloso Nuvoloso -2 -3 92 1024 6 S/SE 7.4
Oggi h: 02:50 sereno Sereno -2 -4 86 1025 6 N 1.8
Oggi h: 02:20 sereno Sereno -1 -3 86 1025 6 N 1.8
Oggi h: 01:50 sereno Sereno -1 -3 86 1025 6 N 3.7
Oggi h: 01:20 sereno Sereno -0 -3 80 1025 7 N 5.5
Oggi h: 00:50 sereno Sereno 0 -1 92 1025 6 N 1.8
Oggi h: 00:20 sereno Sereno -0 -2 86 1025 6 S/SO 9.3
Ieri h: 23:50 sereno Sereno 1 -1 86 1025 6 S/SE 7.4
Ieri h: 23:20 sereno Sereno 2 -0 86 1025 7 S 7.4
Ieri h: 22:50 sereno Sereno 1 -1 86 1025 7 S 7.4
Ieri h: 22:20 sereno Sereno 2 -0 86 1026 9 N 5.5
Ieri h: 21:50 sereno Sereno 3 -0 80 1026 10 S 9.3
Ieri h: 21:20 sereno Sereno 3 -0 80 1026 10 S 7.4
Ieri h: 20:50 sereno Sereno 4 0 75 1025 10 S 9.3
Ieri h: 20:20 sereno Sereno 4 1 80 1025 10 N 3.7
Ieri h: 19:50 sereno Sereno 2 -0 86 1025 10 N 5.5
Ieri h: 19:20 sereno Sereno 3 1 86 1025 10 N 3.7
Ieri h: 18:50 sereno Sereno 5 2 80 1025 10 N 5.5
Ieri h: 18:20 sereno Sereno 6 2 75 1025 10 N 5.5
Ieri h: 17:50 sereno Sereno 8 3 70 1025 10 SE 7.4
Ieri h: 17:20 sereno Sereno 8 2 65 1025 10 N 5.5
Ieri h: 16:50 sereno Sereno 10 3 61 1025 10 SE 7.4
Ieri h: 16:20 sereno Sereno 11 2 53 1025 10 E/SE 7.4
Ieri h: 15:50 sereno Sereno 12 3 54 1025 10 SE 7.4